createdAt,value
2023-03-02T00:01:50.057Z,125.87
2023-03-02T00:04:26.441Z,128.07
2023-03-02T00:06:58.555Z,128.53
2023-03-02T00:09:25.899Z,129.27
2023-03-02T00:11:53.071Z,129.57
2023-03-02T00:14:20.155Z,128.27
2023-03-02T00:16:47.272Z,131.70
2023-03-02T00:19:14.263Z,133.10
2023-03-02T00:21:41.584Z,131.83
2023-03-02T00:24:08.689Z,133.83
2023-03-02T00:26:36.549Z,131.43
2023-03-02T00:29:04.138Z,142.10
2023-03-02T00:31:31.341Z,133.23
2023-03-02T00:33:58.430Z,128.50
2023-03-02T00:36:26.002Z,130.87
2023-03-02T00:38:53.227Z,141.70
2023-03-02T00:41:23.701Z,136.60
2023-03-02T00:43:51.397Z,151.73
2023-03-02T00:46:22.377Z,159.73
2023-03-02T00:48:50.323Z,151.07
2023-03-02T00:51:18.282Z,149.07
2023-03-02T00:53:45.735Z,138.00
2023-03-02T00:56:13.168Z,146.77
2023-03-02T00:58:45.408Z,140.13
2023-03-02T01:01:13.654Z,139.07
2023-03-02T01:03:45.833Z,155.77
2023-03-02T01:06:16.935Z,144.20
2023-03-02T01:08:44.244Z,151.77
2023-03-02T01:11:20.213Z,139.27
2023-03-02T01:13:47.412Z,151.90
2023-03-02T01:16:14.816Z,155.20
2023-03-02T01:18:42.470Z,142.33
2023-03-02T01:21:12.288Z,141.17
2023-03-02T01:23:39.447Z,143.50
2023-03-02T01:26:06.712Z,144.10
2023-03-02T01:28:33.752Z,151.47
2023-03-02T01:31:02.711Z,154.60
2023-03-02T01:33:30.068Z,147.50
2023-03-02T01:35:57.113Z,139.37
2023-03-02T01:38:24.184Z,143.27
2023-03-02T01:40:51.325Z,148.97
2023-03-02T01:43:18.513Z,144.37
2023-03-02T01:45:51.940Z,142.13
2023-03-02T01:48:44.875Z,143.97
2023-03-02T01:51:16.165Z,141.80
2023-03-02T01:53:50.597Z,141.43
2023-03-02T01:56:21.877Z,137.37
2023-03-02T01:58:53.978Z,146.00
2023-03-02T02:01:22.417Z,136.23
2023-03-02T02:03:51.200Z,141.73
2023-03-02T02:06:33.939Z,139.70
2023-03-02T02:09:02.250Z,139.33
2023-03-02T02:11:29.387Z,141.47
2023-03-02T02:13:59.668Z,150.00
2023-03-02T02:16:32.959Z,140.63
2023-03-02T02:19:01.733Z,139.97
2023-03-02T02:21:29.308Z,150.60
2023-03-02T02:24:21.240Z,145.23
2023-03-02T02:26:54.491Z,142.00
2023-03-02T02:29:26.242Z,147.97
2023-03-02T02:32:19.601Z,140.33
2023-03-02T02:34:49.273Z,145.90
2023-03-02T02:37:28.428Z,139.23
2023-03-02T02:39:56.211Z,141.63
2023-03-02T02:42:39.215Z,145.00
2023-03-02T02:45:17.570Z,132.73
2023-03-02T02:47:44.645Z,141.37
2023-03-02T02:50:23.271Z,141.93
2023-03-02T02:52:57.422Z,138.47
2023-03-02T02:55:26.630Z,142.07
2023-03-02T02:57:56.789Z,144.23
2023-03-02T03:00:25.706Z,136.63
2023-03-02T03:03:29.067Z,149.53
2023-03-02T03:06:00.120Z,137.77
2023-03-02T03:09:02.257Z,145.10
2023-03-02T03:11:37.968Z,152.47
2023-03-02T03:14:10.131Z,148.77
2023-03-02T03:16:39.497Z,150.97
2023-03-02T03:19:29.372Z,145.47
2023-03-02T03:22:01.168Z,153.87
2023-03-02T03:24:34.601Z,142.07
2023-03-02T03:27:05.593Z,146.13
2023-03-02T03:29:36.617Z,163.17
2023-03-02T03:32:07.096Z,147.37
2023-03-02T03:34:40.928Z,144.67
2023-03-02T03:37:23.880Z,147.30
2023-03-02T03:39:51.209Z,147.13
2023-03-02T03:42:18.815Z,147.93
2023-03-02T03:44:46.666Z,144.93
2023-03-02T03:47:13.907Z,143.23
2023-03-02T03:49:41.102Z,145.40
2023-03-02T03:52:09.114Z,147.67
2023-03-02T03:54:36.363Z,146.47
2023-03-02T03:57:03.691Z,154.33
2023-03-02T03:59:30.762Z,142.90
2023-03-02T04:02:01.971Z,145.13
2023-03-02T04:04:36.261Z,150.90
2023-03-02T04:07:14.336Z,149.37
2023-03-02T04:09:43.524Z,143.43
2023-03-02T04:12:12.782Z,146.23
2023-03-02T04:14:43.668Z,148.70
2023-03-02T04:17:11.658Z,160.70
2023-03-02T04:19:42.417Z,150.27
2023-03-02T04:22:10.036Z,155.07
2023-03-02T04:24:37.260Z,147.47
2023-03-02T04:27:05.068Z,153.77
2023-03-02T04:29:33.739Z,157.47
2023-03-02T04:32:02.903Z,145.77
2023-03-02T04:34:32.772Z,166.60
2023-03-02T04:37:00.638Z,163.73
2023-03-02T04:39:27.855Z,177.77
2023-03-02T04:41:55.085Z,175.37
2023-03-02T04:44:22.522Z,180.93
2023-03-02T04:46:50.264Z,192.07
2023-03-02T04:49:18.670Z,194.20
2023-03-02T04:51:47.519Z,183.77
2023-03-02T04:54:18.926Z,191.20
2023-03-02T04:56:48.701Z,200.20
2023-03-02T04:59:16.778Z,186.67
2023-03-02T05:01:44.606Z,176.77
2023-03-02T05:04:12.102Z,183.40
2023-03-02T05:06:39.434Z,187.30
2023-03-02T05:09:06.835Z,174.57
2023-03-02T05:11:34.777Z,174.83
2023-03-02T05:14:04.663Z,174.97
2023-03-02T05:16:34.642Z,175.23
2023-03-02T05:19:04.374Z,180.77
2023-03-02T05:21:31.613Z,169.93
2023-03-02T05:23:58.995Z,167.00
2023-03-02T05:26:26.004Z,168.07
2023-03-02T05:28:54.099Z,156.43
2023-03-02T05:31:41.910Z,162.60
2023-03-02T05:34:12.090Z,154.30
2023-03-02T05:36:39.497Z,164.10
2023-03-02T05:39:07.499Z,156.90
2023-03-02T05:41:35.783Z,156.90
2023-03-02T05:44:03.133Z,146.27
2023-03-02T05:46:30.684Z,161.60
2023-03-02T05:48:58.005Z,149.00
2023-03-02T05:51:24.939Z,147.63
2023-03-02T05:53:51.944Z,147.40
2023-03-02T05:56:20.802Z,143.23
2023-03-02T05:58:47.844Z,138.23
2023-03-02T06:01:15.522Z,145.90
2023-03-02T06:03:43.539Z,145.73
2023-03-02T06:06:14.127Z,137.03
2023-03-02T06:08:42.648Z,133.30
2023-03-02T06:11:10.804Z,135.27
2023-03-02T06:13:38.756Z,131.73
2023-03-02T06:16:06.301Z,126.20
2023-03-02T06:18:33.835Z,130.03
2023-03-02T06:21:00.947Z,129.53
2023-03-02T06:23:27.940Z,128.60
2023-03-02T06:25:55.036Z,133.33
2023-03-02T06:28:22.111Z,124.73
2023-03-02T06:30:49.964Z,122.33
2023-03-02T06:33:19.069Z,124.00
2023-03-02T06:35:46.884Z,134.30
2023-03-02T06:38:14.116Z,132.47
2023-03-02T06:40:41.316Z,133.30
2023-03-02T06:43:08.322Z,131.47
2023-03-02T06:45:35.354Z,132.43
2023-03-02T06:48:02.521Z,138.80
2023-03-02T06:50:29.580Z,135.90
2023-03-02T06:52:56.853Z,127.47
2023-03-02T06:55:24.015Z,131.30
2023-03-02T06:57:51.237Z,132.70
2023-03-02T07:00:25.967Z,124.47
2023-03-02T07:02:54.385Z,131.17
2023-03-02T07:05:23.447Z,130.87
2023-03-02T07:07:50.819Z,133.20
2023-03-02T07:10:17.945Z,135.73
2023-03-02T07:12:44.931Z,130.32
2023-03-02T07:15:14.288Z,129.87
2023-03-02T07:17:43.415Z,136.57
2023-03-02T07:20:14.010Z,133.67
2023-03-02T07:22:41.821Z,136.30
2023-03-02T07:25:10.383Z,137.97
2023-03-02T07:27:38.010Z,138.20
2023-03-02T07:30:06.754Z,144.87
2023-03-02T07:32:33.989Z,140.73
2023-03-02T07:35:01.105Z,128.03
2023-03-02T07:37:28.248Z,127.97
2023-03-02T07:39:55.266Z,133.50
2023-03-02T07:42:22.240Z,127.25
2023-03-02T07:44:54.378Z,133.25
2023-03-02T07:47:22.293Z,145.75
2023-03-02T07:49:49.316Z,136.07
2023-03-02T07:52:16.451Z,134.98
2023-03-02T07:54:43.610Z,128.27
2023-03-02T07:57:10.623Z,137.18
2023-03-02T07:59:37.738Z,133.38
2023-03-02T08:02:04.723Z,133.10
2023-03-02T08:04:34.464Z,127.78
2023-03-02T08:07:01.582Z,127.65
2023-03-02T08:09:28.705Z,127.68
2023-03-02T08:11:55.777Z,127.07
2023-03-02T08:14:23.050Z,130.98
2023-03-02T08:16:52.284Z,130.13
2023-03-02T08:19:19.661Z,122.18
2023-03-02T08:21:46.644Z,117.35
2023-03-02T08:24:13.787Z,123.60
2023-03-02T08:26:40.747Z,126.68
2023-03-02T08:29:08.049Z,117.35
2023-03-02T08:31:35.515Z,123.45
2023-03-02T08:34:03.275Z,116.43
2023-03-02T08:36:30.370Z,113.97
2023-03-02T08:38:57.391Z,116.70
2023-03-02T08:41:24.857Z,104.88
2023-03-02T08:43:54.336Z,112.13
2023-03-02T08:46:21.525Z,104.07
2023-03-02T08:48:51.299Z,113.28
2023-03-02T08:51:21.702Z,109.18
2023-03-02T08:53:50.613Z,111.43
2023-03-02T08:56:21.940Z,113.55
2023-03-02T08:58:50.905Z,100.80
2023-03-02T09:01:23.222Z,98.82
2023-03-02T09:03:50.880Z,104.32
2023-03-02T09:06:18.177Z,106.07
2023-03-02T09:08:45.189Z,102.35
2023-03-02T09:11:12.596Z,100.82
2023-03-02T09:13:39.796Z,93.15
2023-03-02T09:16:08.904Z,99.75
2023-03-02T09:18:36.663Z,94.97
2023-03-02T09:21:04.794Z,93.95
2023-03-02T09:23:33.073Z,96.72
2023-03-02T09:26:00.179Z,99.90
2023-03-02T09:28:27.398Z,89.07
2023-03-02T09:30:58.233Z,98.18
2023-03-02T09:33:25.885Z,89.30
2023-03-02T09:35:52.874Z,81.55
2023-03-02T09:38:20.342Z,95.82
2023-03-02T09:41:20.370Z,89.68
2023-03-02T09:44:08.853Z,90.22
2023-03-02T09:47:00.671Z,82.55
2023-03-02T09:50:05.878Z,91.88
2023-03-02T09:52:41.017Z,84.88
2023-03-02T09:55:15.807Z,87.28
2023-03-02T09:57:43.483Z,90.32
2023-03-02T10:00:24.594Z,85.75
2023-03-02T10:02:58.738Z,86.15
2023-03-02T10:05:42.004Z,81.63
2023-03-02T10:08:14.983Z,81.00
2023-03-02T10:10:49.160Z,80.35
2023-03-02T10:13:40.764Z,75.25
2023-03-02T10:16:26.754Z,73.05
2023-03-02T10:19:25.257Z,71.75
2023-03-02T10:22:00.628Z,76.80
2023-03-02T10:24:39.905Z,76.75
2023-03-02T10:27:40.831Z,77.65
2023-03-02T10:30:19.854Z,70.22
2023-03-02T10:32:52.322Z,67.40
2023-03-02T10:35:26.070Z,65.75
2023-03-02T10:38:02.615Z,68.78
2023-03-02T10:40:40.330Z,64.97
2023-03-02T10:43:16.663Z,66.53
2023-03-02T10:45:44.029Z,62.45
2023-03-02T10:48:13.691Z,71.80
2023-03-02T10:50:43.564Z,62.22
2023-03-02T10:53:18.522Z,55.97
2023-03-02T10:55:48.001Z,52.47
2023-03-02T10:58:26.034Z,54.97
2023-03-02T11:00:57.355Z,45.97
2023-03-02T11:03:24.371Z,49.72
2023-03-02T11:05:51.345Z,51.45
2023-03-02T11:08:28.660Z,51.17
2023-03-02T11:11:01.864Z,44.72
2023-03-02T11:13:31.716Z,50.80
2023-03-02T11:16:18.013Z,46.65
2023-03-02T11:19:00.426Z,37.42
2023-03-02T11:21:41.658Z,41.85
2023-03-02T11:24:51.065Z,41.13
2023-03-02T11:27:33.814Z,42.83
2023-03-02T11:30:13.851Z,34.13
2023-03-02T11:33:03.961Z,32.20
2023-03-02T11:35:39.713Z,37.33
2023-03-02T11:38:34.066Z,43.25
2023-03-02T11:41:27.314Z,41.20
2023-03-02T11:43:55.003Z,39.42
2023-03-02T11:46:30.597Z,38.20
2023-03-02T11:49:03.627Z,36.55
2023-03-02T11:51:36.933Z,36.65
2023-03-02T11:54:23.789Z,36.15
2023-03-02T11:56:51.082Z,36.35
2023-03-02T11:59:21.035Z,40.47
2023-03-02T12:01:52.855Z,42.17
2023-03-02T12:04:26.827Z,36.75
2023-03-02T12:06:54.170Z,30.73
2023-03-02T12:09:23.953Z,35.10
2023-03-02T12:12:28.123Z,36.22
2023-03-02T12:14:55.319Z,31.85
2023-03-02T12:17:33.130Z,35.40
2023-03-02T12:20:22.876Z,38.75
2023-03-02T12:22:50.092Z,37.90
2023-03-02T12:25:20.131Z,36.88
2023-03-02T12:27:48.920Z,35.08
2023-03-02T12:30:16.261Z,35.30
2023-03-02T12:33:13.162Z,35.45
2023-03-02T12:35:40.272Z,32.35
2023-03-02T12:38:23.507Z,31.17
2023-03-02T12:41:03.228Z,37.10
2023-03-02T12:43:34.593Z,35.85
2023-03-02T12:46:19.710Z,31.70
2023-03-02T12:49:14.733Z,33.80
2023-03-02T12:51:53.062Z,36.70
2023-03-02T12:54:24.019Z,41.83
2023-03-02T12:57:14.435Z,38.40
2023-03-02T12:59:41.877Z,38.97
2023-03-02T13:02:17.349Z,34.75
2023-03-02T13:04:51.629Z,35.10
2023-03-02T13:07:22.846Z,38.92
2023-03-02T13:09:56.860Z,39.65
2023-03-02T13:12:27.980Z,39.13
2023-03-02T13:14:58.064Z,39.08
2023-03-02T13:17:33.516Z,43.65
2023-03-02T13:20:03.484Z,40.47
2023-03-02T13:22:30.816Z,42.58
2023-03-02T13:25:05.167Z,44.55
2023-03-02T13:27:34.004Z,41.55
2023-03-02T13:30:12.979Z,46.30
2023-03-02T13:32:43.289Z,45.38
2023-03-02T13:35:26.979Z,43.72
2023-03-02T13:38:05.250Z,38.08
2023-03-02T13:40:39.519Z,39.83
2023-03-02T13:43:20.046Z,35.30
2023-03-02T13:46:06.457Z,35.40
2023-03-02T13:48:34.110Z,33.88
2023-03-02T13:51:19.170Z,33.67
2023-03-02T13:53:55.221Z,34.53
2023-03-02T13:56:28.291Z,32.85
2023-03-02T13:58:55.722Z,35.20
2023-03-02T14:01:22.873Z,32.85
2023-03-02T14:03:49.963Z,36.10
2023-03-02T14:06:18.935Z,36.28
2023-03-02T14:08:46.795Z,33.70
2023-03-02T14:11:18.180Z,32.00
2023-03-02T14:14:06.355Z,33.30
2023-03-02T14:16:37.223Z,36.78
2023-03-02T14:19:04.606Z,40.95
2023-03-02T14:21:32.165Z,35.38
2023-03-02T14:23:59.672Z,36.00
2023-03-02T14:26:33.908Z,35.83
2023-03-02T14:29:05.699Z,36.67
2023-03-02T14:31:34.382Z,42.45
2023-03-02T14:34:02.322Z,42.63
2023-03-02T14:36:33.123Z,36.45
2023-03-02T14:39:04.541Z,38.38
2023-03-02T14:41:34.404Z,36.63
2023-03-02T14:44:05.350Z,40.08
2023-03-02T14:46:32.397Z,38.33
2023-03-02T14:48:59.362Z,39.28
2023-03-02T14:51:30.582Z,37.17
2023-03-02T14:54:00.334Z,41.00
2023-03-02T14:56:28.413Z,38.60
2023-03-02T14:58:55.792Z,43.38
2023-03-02T15:01:24.189Z,41.38
2023-03-02T15:03:51.267Z,41.83
2023-03-02T15:06:31.552Z,40.13
2023-03-02T15:09:01.039Z,37.35
2023-03-02T15:11:29.189Z,37.55
2023-03-02T15:13:56.267Z,39.95
2023-03-02T15:16:23.761Z,37.50
2023-03-02T15:18:52.045Z,34.53
2023-03-02T15:21:22.146Z,43.63
2023-03-02T15:23:51.075Z,43.40
2023-03-02T15:26:18.501Z,36.83
2023-03-02T15:28:45.759Z,37.35
2023-03-02T15:31:17.905Z,35.33
2023-03-02T15:33:47.696Z,39.63
2023-03-02T15:36:14.959Z,39.25
2023-03-02T15:38:42.168Z,40.15
2023-03-02T15:41:12.935Z,42.58
2023-03-02T15:43:40.332Z,42.05
2023-03-02T15:46:09.649Z,41.03
2023-03-02T15:48:37.662Z,42.35
2023-03-02T15:51:06.964Z,41.95
2023-03-02T15:53:38.100Z,39.33
2023-03-02T15:56:12.116Z,39.60
2023-03-02T15:58:39.490Z,35.00
2023-03-02T16:01:08.440Z,38.72
2023-03-02T16:03:35.698Z,43.95
2023-03-02T16:06:03.282Z,40.25
2023-03-02T16:08:30.330Z,39.80
2023-03-02T16:11:02.610Z,37.53
2023-03-02T16:13:30.572Z,42.28
2023-03-02T16:16:00.838Z,43.55
2023-03-02T16:18:27.950Z,45.17
2023-03-02T16:20:55.189Z,49.17
2023-03-02T16:23:22.213Z,40.42
2023-03-02T16:25:50.271Z,42.13
2023-03-02T16:28:18.987Z,45.00
2023-03-02T16:30:47.098Z,43.05
2023-03-02T16:33:17.070Z,43.90
2023-03-02T16:35:44.953Z,46.42
2023-03-02T16:38:12.341Z,43.47
2023-03-02T16:40:40.283Z,46.42
2023-03-02T16:43:11.214Z,45.03
2023-03-02T16:45:38.445Z,43.63
2023-03-02T16:48:06.538Z,49.67
2023-03-02T16:50:33.707Z,46.65
2023-03-02T16:53:00.904Z,46.70
2023-03-02T16:55:28.117Z,49.57
2023-03-02T16:57:55.379Z,48.27
2023-03-02T17:00:23.367Z,45.23
2023-03-02T17:02:51.410Z,43.97
2023-03-02T17:05:19.489Z,47.10
2023-03-02T17:07:46.845Z,43.43
2023-03-02T17:10:17.877Z,48.97
2023-03-02T17:12:45.181Z,42.60
2023-03-02T17:15:14.049Z,46.57
2023-03-02T17:17:41.277Z,47.83
2023-03-02T17:20:13.046Z,46.90
2023-03-02T17:22:40.325Z,47.83
2023-03-02T17:25:07.840Z,47.50
2023-03-02T17:27:34.808Z,46.57
2023-03-02T17:30:01.922Z,44.83
2023-03-02T17:32:29.010Z,43.37
2023-03-02T17:34:56.142Z,50.03
2023-03-02T17:37:23.226Z,56.70
2023-03-02T17:39:51.028Z,48.57
2023-03-02T17:42:19.057Z,47.67
2023-03-02T17:44:46.225Z,55.10
2023-03-02T17:47:16.183Z,54.87
2023-03-02T17:49:46.642Z,52.43
2023-03-02T17:52:15.546Z,53.87
2023-03-02T17:54:43.280Z,56.70
2023-03-02T17:57:11.619Z,55.63
2023-03-02T17:59:38.623Z,59.47
2023-03-02T18:02:05.740Z,57.17
2023-03-02T18:04:32.881Z,52.60
2023-03-02T18:07:01.654Z,57.90
2023-03-02T18:09:28.804Z,56.80
2023-03-02T18:11:55.768Z,53.43
2023-03-02T18:14:24.200Z,66.17
2023-03-02T18:16:51.234Z,53.77
2023-03-02T18:19:18.269Z,54.77
2023-03-02T18:21:45.490Z,58.77
2023-03-02T18:24:12.602Z,54.53
2023-03-02T18:26:39.823Z,51.70
2023-03-02T18:29:07.021Z,51.23
2023-03-02T18:31:34.483Z,51.80
2023-03-02T18:34:02.537Z,50.47
2023-03-02T18:36:29.647Z,60.30
2023-03-02T18:38:56.630Z,59.57
2023-03-02T18:41:25.095Z,63.87
2023-03-02T18:43:52.509Z,60.97
2023-03-02T18:46:22.749Z,61.60
2023-03-02T18:48:51.079Z,68.90
2023-03-02T18:51:19.782Z,61.60
2023-03-02T18:53:48.173Z,66.83
2023-03-02T18:56:15.878Z,63.90
2023-03-02T18:58:43.783Z,59.77
2023-03-02T19:01:11.806Z,68.03
2023-03-02T19:03:39.193Z,76.37
2023-03-02T19:06:07.458Z,71.17
2023-03-02T19:08:35.842Z,76.40
2023-03-02T19:11:04.400Z,77.77
2023-03-02T19:13:31.822Z,76.63
2023-03-02T19:16:00.692Z,80.17
2023-03-02T19:18:30.487Z,78.67
2023-03-02T19:20:57.822Z,81.47
2023-03-02T19:23:25.475Z,82.33
2023-03-02T19:25:53.103Z,83.33
2023-03-02T19:28:21.800Z,86.77
2023-03-02T19:30:49.656Z,83.93
2023-03-02T19:33:17.490Z,83.67
2023-03-02T19:35:44.742Z,90.33
2023-03-02T19:38:12.717Z,92.93
2023-03-02T19:40:39.742Z,85.00
2023-03-02T19:43:07.164Z,91.07
2023-03-02T19:45:35.785Z,85.03
2023-03-02T19:48:03.667Z,89.50
2023-03-02T19:50:31.248Z,97.23
2023-03-02T19:52:58.903Z,94.97
2023-03-02T19:55:26.925Z,101.73
2023-03-02T19:58:00.066Z,98.80
2023-03-02T20:00:29.548Z,98.43
2023-03-02T20:02:57.646Z,104.53
2023-03-02T20:05:27.581Z,108.37
2023-03-02T20:07:54.839Z,108.17
2023-03-02T20:10:31.337Z,105.93
2023-03-02T20:12:59.755Z,114.23
2023-03-02T20:15:30.060Z,117.30
2023-03-02T20:17:59.406Z,123.57
2023-03-02T20:20:29.561Z,130.67
2023-03-02T20:22:56.732Z,134.13
2023-03-02T20:25:23.945Z,139.23
2023-03-02T20:27:51.933Z,146.03
2023-03-02T20:30:28.322Z,142.37
2023-03-02T20:32:56.628Z,142.93
2023-03-02T20:35:25.666Z,142.33
2023-03-02T20:37:54.782Z,146.00
2023-03-02T20:40:23.272Z,147.20
2023-03-02T20:42:50.366Z,146.93
2023-03-02T20:45:17.514Z,141.93
2023-03-02T20:47:45.781Z,142.83
2023-03-02T20:50:16.982Z,146.67
2023-03-02T20:52:44.020Z,148.30
2023-03-02T20:55:12.379Z,143.20
2023-03-02T20:57:40.037Z,145.83
2023-03-02T21:00:09.482Z,148.77
2023-03-02T21:02:36.494Z,145.20
2023-03-02T21:05:05.173Z,150.30
2023-03-02T21:07:32.904Z,135.97
2023-03-02T21:09:59.909Z,136.03
2023-03-02T21:12:27.299Z,135.63
2023-03-02T21:14:54.475Z,125.50
2023-03-02T21:17:23.476Z,120.03
2023-03-02T21:19:50.639Z,129.53
2023-03-02T21:22:17.644Z,127.93
2023-03-02T21:24:44.622Z,124.67
2023-03-02T21:27:11.950Z,138.97
2023-03-02T21:29:38.976Z,139.17
2023-03-02T21:32:08.154Z,134.67
2023-03-02T21:34:38.329Z,133.70
2023-03-02T21:37:05.903Z,142.77
2023-03-02T21:39:32.902Z,141.80
2023-03-02T21:42:00.280Z,142.07
2023-03-02T21:44:27.421Z,145.13
2023-03-02T21:46:54.868Z,138.83
2023-03-02T21:49:23.234Z,136.33
2023-03-02T21:51:50.583Z,133.87
2023-03-02T21:54:17.562Z,129.30
2023-03-02T21:56:44.692Z,138.93
2023-03-02T21:59:12.850Z,122.83
2023-03-02T22:01:40.004Z,126.00
2023-03-02T22:04:07.444Z,123.53
2023-03-02T22:06:35.160Z,128.57
2023-03-02T22:09:02.659Z,119.10
2023-03-02T22:11:32.922Z,129.23
2023-03-02T22:14:03.334Z,118.73
2023-03-02T22:16:37.153Z,125.03
2023-03-02T22:19:23.896Z,122.73
2023-03-02T22:21:51.960Z,121.60
2023-03-02T22:24:27.917Z,129.43
2023-03-02T22:27:16.527Z,129.23
2023-03-02T22:29:46.011Z,123.43
2023-03-02T22:32:25.503Z,130.80
2023-03-02T22:34:58.426Z,122.27
2023-03-02T22:37:32.968Z,133.17
2023-03-02T22:40:27.915Z,137.57
2023-03-02T22:43:07.360Z,139.90
2023-03-02T22:45:35.487Z,143.70
2023-03-02T22:48:02.425Z,153.10
2023-03-02T22:50:30.877Z,144.27
2023-03-02T22:53:00.005Z,146.70
2023-03-02T22:55:40.354Z,135.37
2023-03-02T22:58:30.401Z,148.77
2023-03-02T23:00:59.508Z,143.93
2023-03-02T23:03:42.480Z,154.03
2023-03-02T23:06:45.105Z,143.33
2023-03-02T23:09:14.926Z,142.50
2023-03-02T23:11:42.116Z,135.20
2023-03-02T23:14:27.712Z,133.27
2023-03-02T23:16:58.830Z,134.77
2023-03-02T23:19:30.528Z,136.67
2023-03-02T23:21:58.122Z,136.13
2023-03-02T23:24:25.517Z,145.67
2023-03-02T23:26:53.040Z,146.93
2023-03-02T23:29:21.355Z,140.97
2023-03-02T23:31:49.882Z,136.83
2023-03-02T23:34:16.959Z,138.23
2023-03-02T23:36:43.975Z,141.27
2023-03-02T23:39:11.334Z,142.70
2023-03-02T23:41:39.117Z,143.87
2023-03-02T23:44:06.975Z,133.27
2023-03-02T23:46:34.522Z,136.50
2023-03-02T23:49:01.565Z,141.87
2023-03-02T23:51:28.573Z,132.33
2023-03-02T23:53:56.277Z,133.00
2023-03-02T23:56:23.789Z,136.07
2023-03-02T23:58:51.256Z,134.33
